createdAt,value
2018-10-16T00:00:29.551Z,0
2018-10-16T00:01:30.935Z,0
2018-10-16T00:02:32.329Z,0
2018-10-16T00:03:33.718Z,0
2018-10-16T00:04:35.110Z,0
2018-10-16T00:05:36.499Z,0
2018-10-16T00:06:37.888Z,0
2018-10-16T00:07:39.276Z,0
2018-10-16T00:08:40.663Z,0
2018-10-16T00:09:42.059Z,0
2018-10-16T00:10:43.440Z,0
2018-10-16T00:11:44.831Z,0
2018-10-16T00:12:46.219Z,0
2018-10-16T00:13:47.611Z,0
2018-10-16T00:14:49.000Z,0
2018-10-16T00:15:50.391Z,0
2018-10-16T00:16:51.781Z,0
2018-10-16T00:17:53.172Z,0
2018-10-16T00:18:54.563Z,0
2018-10-16T00:19:55.967Z,0
2018-10-16T00:20:57.364Z,0
2018-10-16T00:21:58.758Z,0
2018-10-16T00:23:00.140Z,0
2018-10-16T00:24:01.531Z,0
2018-10-16T00:25:02.927Z,0
2018-10-16T00:26:04.315Z,0
2018-10-16T00:27:05.703Z,0
2018-10-16T00:28:07.095Z,0
2018-10-16T00:29:08.483Z,0
2018-10-16T00:30:09.872Z,0
2018-10-16T00:31:11.263Z,0
2018-10-16T00:32:12.650Z,0
2018-10-16T00:33:14.044Z,0
2018-10-16T00:34:15.435Z,0
2018-10-16T00:35:16.824Z,0
2018-10-16T00:36:18.214Z,0
2018-10-16T00:37:19.601Z,0
2018-10-16T00:38:20.993Z,0
2018-10-16T00:39:22.379Z,0
2018-10-16T00:40:23.765Z,0
2018-10-16T00:41:25.267Z,0
2018-10-16T00:42:26.684Z,0
2018-10-16T00:43:28.077Z,0
2018-10-16T00:44:29.468Z,0
2018-10-16T00:45:30.866Z,0
2018-10-16T00:46:32.253Z,0
2018-10-16T00:47:33.641Z,0
2018-10-16T00:48:35.036Z,0
2018-10-16T00:49:36.428Z,0
2018-10-16T00:50:37.817Z,0
2018-10-16T00:51:39.239Z,0
2018-10-16T00:52:40.627Z,0
2018-10-16T00:53:42.020Z,0
2018-10-16T00:54:43.443Z,0
2018-10-16T00:55:44.806Z,0
2018-10-16T00:56:46.199Z,0
2018-10-16T00:57:47.588Z,0
2018-10-16T00:58:48.981Z,0
2018-10-16T00:59:50.369Z,0
2018-10-16T01:00:51.758Z,0
2018-10-16T01:01:53.155Z,0
2018-10-16T01:02:54.548Z,0
2018-10-16T01:03:55.941Z,0
2018-10-16T01:04:57.336Z,0
2018-10-16T01:05:58.721Z,0
2018-10-16T01:07:00.109Z,0
2018-10-16T01:08:01.503Z,0
2018-10-16T01:09:02.904Z,0
2018-10-16T01:10:04.300Z,0
2018-10-16T01:11:05.690Z,0
2018-10-16T01:12:07.081Z,0
2018-10-16T01:13:08.519Z,0
2018-10-16T01:14:09.896Z,0
2018-10-16T01:15:11.291Z,0
2018-10-16T01:16:12.690Z,0
2018-10-16T01:17:14.077Z,0
2018-10-16T01:18:15.473Z,0
2018-10-16T01:19:16.862Z,0
2018-10-16T01:20:18.255Z,0
2018-10-16T01:21:19.644Z,0
2018-10-16T01:22:21.034Z,0
2018-10-16T01:23:22.423Z,0
2018-10-16T01:24:23.813Z,0
2018-10-16T01:25:25.204Z,0
2018-10-16T01:26:26.590Z,0
2018-10-16T01:27:28.074Z,0
2018-10-16T01:28:29.470Z,0
2018-10-16T01:29:30.861Z,0
2018-10-16T01:30:32.249Z,0
2018-10-16T01:31:33.642Z,0
2018-10-16T01:32:35.028Z,0
2018-10-16T01:33:36.416Z,0
2018-10-16T01:34:37.805Z,0
2018-10-16T01:35:39.189Z,0
2018-10-16T01:36:40.583Z,0
2018-10-16T01:37:41.974Z,0
2018-10-16T01:38:43.368Z,0
2018-10-16T01:39:44.759Z,0
2018-10-16T01:40:46.144Z,0
2018-10-16T01:41:47.535Z,0
2018-10-16T01:42:48.927Z,0
2018-10-16T01:43:50.316Z,0
2018-10-16T01:44:51.704Z,0
2018-10-16T01:45:53.095Z,0
2018-10-16T01:46:54.487Z,0
2018-10-16T01:47:55.874Z,0
2018-10-16T01:48:57.262Z,0
2018-10-16T01:49:58.653Z,0
2018-10-16T01:51:00.039Z,0
2018-10-16T01:52:01.480Z,0
2018-10-16T01:53:02.872Z,0
2018-10-16T01:54:04.270Z,0
2018-10-16T01:55:05.675Z,0
2018-10-16T01:56:07.068Z,0
2018-10-16T01:57:08.458Z,0
2018-10-16T01:58:09.847Z,0
2018-10-16T01:59:11.286Z,0
2018-10-16T02:00:12.675Z,0
2018-10-16T02:01:14.066Z,0
2018-10-16T02:02:15.452Z,0
2018-10-16T02:03:16.842Z,0
2018-10-16T02:04:18.231Z,0
2018-10-16T02:05:19.620Z,0
2018-10-16T02:06:21.010Z,0
2018-10-16T02:07:22.401Z,0
2018-10-16T02:08:23.791Z,0
2018-10-16T02:09:25.180Z,0
2018-10-16T02:10:26.573Z,0
2018-10-16T02:11:27.964Z,0
2018-10-16T02:12:29.357Z,0
2018-10-16T02:13:30.854Z,0
2018-10-16T02:14:32.402Z,0
2018-10-16T02:15:33.741Z,0
2018-10-16T02:16:35.129Z,0
2018-10-16T02:17:36.517Z,0
2018-10-16T02:18:37.908Z,0
2018-10-16T02:19:39.301Z,0
2018-10-16T02:20:40.695Z,0
2018-10-16T02:21:42.086Z,0
2018-10-16T02:22:43.483Z,0
2018-10-16T02:23:44.871Z,0
2018-10-16T02:24:46.259Z,0
2018-10-16T02:25:47.647Z,0
2018-10-16T02:26:49.036Z,0
2018-10-16T02:27:50.424Z,0
2018-10-16T02:28:51.813Z,0
2018-10-16T02:29:53.205Z,0
2018-10-16T02:30:54.600Z,0
2018-10-16T02:31:55.984Z,0
2018-10-16T02:32:57.384Z,0
2018-10-16T02:33:58.769Z,0
2018-10-16T02:35:00.159Z,0
2018-10-16T02:36:01.552Z,0
2018-10-16T02:37:02.943Z,0
2018-10-16T02:38:04.331Z,0
2018-10-16T02:39:05.724Z,0
2018-10-16T02:40:07.124Z,0
2018-10-16T02:41:08.507Z,0
2018-10-16T02:42:09.900Z,0
2018-10-16T02:43:11.296Z,0
2018-10-16T02:44:12.687Z,0
2018-10-16T02:45:14.075Z,0
2018-10-16T02:46:15.475Z,0
2018-10-16T02:47:16.851Z,0
2018-10-16T02:48:18.238Z,0
2018-10-16T02:49:19.630Z,0
2018-10-16T02:50:21.017Z,0
2018-10-16T02:51:22.411Z,0
2018-10-16T02:52:23.800Z,0
2018-10-16T02:53:25.209Z,0
2018-10-16T02:54:26.603Z,0
2018-10-16T02:55:27.981Z,0
2018-10-16T02:56:29.371Z,0
2018-10-16T02:57:30.762Z,0
2018-10-16T02:58:32.158Z,0
2018-10-16T02:59:33.549Z,0
2018-10-16T03:00:35.028Z,0
2018-10-16T03:01:36.429Z,0
2018-10-16T03:02:37.820Z,0
2018-10-16T03:03:39.217Z,0
2018-10-16T03:04:40.607Z,0
2018-10-16T03:05:41.997Z,0
2018-10-16T03:06:43.381Z,0
2018-10-16T03:07:44.775Z,0
2018-10-16T03:08:46.161Z,0
2018-10-16T03:09:47.556Z,0
2018-10-16T03:10:48.958Z,0
2018-10-16T03:11:50.346Z,0
2018-10-16T03:12:51.737Z,0
2018-10-16T03:13:53.121Z,0
2018-10-16T03:14:54.509Z,0
2018-10-16T03:15:55.901Z,0
2018-10-16T03:16:57.295Z,0
2018-10-16T03:17:58.686Z,0
2018-10-16T03:19:00.079Z,0
2018-10-16T03:20:01.477Z,0
2018-10-16T03:21:02.864Z,0
2018-10-16T03:22:04.255Z,0
2018-10-16T03:23:05.643Z,0
2018-10-16T03:24:07.034Z,0
2018-10-16T03:25:08.431Z,0
2018-10-16T03:26:09.822Z,0
2018-10-16T03:27:11.211Z,0
2018-10-16T03:28:12.599Z,0
2018-10-16T03:29:13.989Z,0
2018-10-16T03:30:15.378Z,0
2018-10-16T03:31:16.770Z,0
2018-10-16T03:32:18.156Z,0
2018-10-16T03:33:19.546Z,0
2018-10-16T03:34:20.937Z,0
2018-10-16T03:35:22.324Z,0
2018-10-16T03:36:23.717Z,0
2018-10-16T03:37:25.115Z,0
2018-10-16T03:38:26.499Z,0
2018-10-16T03:39:27.892Z,0
2018-10-16T03:40:29.281Z,0
2018-10-16T03:41:30.674Z,0
2018-10-16T03:42:32.060Z,0
2018-10-16T03:43:33.452Z,0
2018-10-16T03:44:34.847Z,0
2018-10-16T03:45:36.233Z,0
2018-10-16T03:46:37.730Z,0
2018-10-16T03:47:39.238Z,0
2018-10-16T03:48:40.845Z,0
2018-10-16T03:49:42.239Z,0
2018-10-16T03:50:43.809Z,0
2018-10-16T03:51:45.341Z,0
2018-10-16T03:52:46.726Z,0
2018-10-16T03:53:48.110Z,0
2018-10-16T03:54:49.501Z,0
2018-10-16T03:55:50.891Z,0
2018-10-16T03:56:52.285Z,0
2018-10-16T03:57:53.678Z,0
2018-10-16T03:58:55.070Z,0
2018-10-16T03:59:56.457Z,0
2018-10-16T04:00:57.849Z,0
2018-10-16T04:01:59.234Z,0
2018-10-16T04:03:00.625Z,0
2018-10-16T04:04:02.008Z,0
2018-10-16T04:05:03.399Z,0
2018-10-16T04:06:04.784Z,0
2018-10-16T04:07:06.176Z,0
2018-10-16T04:08:07.574Z,0
2018-10-16T04:09:08.956Z,0
2018-10-16T04:10:10.358Z,0
2018-10-16T04:11:11.747Z,0
2018-10-16T04:12:13.137Z,0
2018-10-16T04:13:14.525Z,0
2018-10-16T04:14:15.911Z,0
2018-10-16T04:15:17.310Z,0
2018-10-16T04:16:18.694Z,0
2018-10-16T04:18:12.099Z,0
2018-10-16T04:19:13.486Z,0
2018-10-16T04:20:35.063Z,0
2018-10-16T04:21:36.450Z,0
2018-10-16T04:22:59.045Z,0
2018-10-16T04:24:00.420Z,0
2018-10-16T04:25:01.808Z,0
2018-10-16T04:26:03.197Z,0
2018-10-16T04:27:04.581Z,0
2018-10-16T04:28:05.969Z,0
2018-10-16T04:29:07.368Z,0
2018-10-16T04:30:08.790Z,0
2018-10-16T04:31:10.258Z,0
2018-10-16T04:32:11.642Z,0
2018-10-16T04:33:13.027Z,0
2018-10-16T04:34:14.418Z,0
2018-10-16T04:35:15.811Z,0
2018-10-16T04:36:17.203Z,0
2018-10-16T04:37:18.595Z,0
2018-10-16T04:38:19.983Z,0
2018-10-16T04:39:21.370Z,0
2018-10-16T04:40:22.758Z,0
2018-10-16T04:41:24.156Z,0
2018-10-16T04:42:25.541Z,0
2018-10-16T04:43:26.934Z,0
2018-10-16T04:44:28.325Z,0
2018-10-16T04:45:29.718Z,0
2018-10-16T04:46:31.108Z,0
2018-10-16T04:47:32.527Z,0
2018-10-16T04:48:33.888Z,0
2018-10-16T04:49:35.274Z,0
2018-10-16T04:50:36.664Z,0
2018-10-16T04:51:38.054Z,0
2018-10-16T04:52:39.442Z,0
2018-10-16T04:53:40.830Z,0
2018-10-16T04:54:42.214Z,0
2018-10-16T04:55:43.609Z,0
2018-10-16T04:56:45.001Z,0
2018-10-16T04:57:46.391Z,0
2018-10-16T04:58:47.780Z,0
2018-10-16T04:59:49.170Z,0
2018-10-16T05:00:50.553Z,0
2018-10-16T05:01:51.939Z,0
2018-10-16T05:02:53.327Z,0
2018-10-16T05:03:54.752Z,0
2018-10-16T05:04:56.106Z,0
2018-10-16T05:05:57.497Z,0
2018-10-16T05:06:58.881Z,0
2018-10-16T05:08:00.268Z,0
2018-10-16T05:09:01.658Z,0
2018-10-16T05:10:03.049Z,0
2018-10-16T05:11:04.440Z,0
2018-10-16T05:12:05.834Z,0
2018-10-16T05:13:07.308Z,0
2018-10-16T05:14:08.621Z,0
2018-10-16T05:15:10.009Z,0
2018-10-16T05:16:11.396Z,0
2018-10-16T05:17:12.822Z,0
2018-10-16T05:18:14.228Z,0
2018-10-16T05:19:15.748Z,0
2018-10-16T05:20:17.015Z,0
2018-10-16T05:21:18.401Z,0
2018-10-16T05:22:19.788Z,0
2018-10-16T05:23:21.177Z,0
2018-10-16T05:24:22.571Z,0
2018-10-16T05:25:23.959Z,0
2018-10-16T05:26:25.347Z,0
2018-10-16T05:27:26.738Z,0
2018-10-16T05:28:28.125Z,0
2018-10-16T05:29:29.509Z,0
2018-10-16T05:30:30.897Z,4
2018-10-16T05:31:32.332Z,4
2018-10-16T05:32:33.667Z,0
2018-10-16T05:33:35.057Z,0
2018-10-16T05:34:36.448Z,4
2018-10-16T05:35:37.837Z,4
2018-10-16T05:36:39.223Z,0
2018-10-16T05:37:40.610Z,4
2018-10-16T05:38:42.043Z,8
2018-10-16T05:39:43.435Z,4
2018-10-16T05:40:44.830Z,4
2018-10-16T05:41:46.256Z,8
2018-10-16T05:42:47.641Z,8
2018-10-16T05:43:49.027Z,8
2018-10-16T05:44:50.416Z,12
2018-10-16T05:45:51.805Z,12
2018-10-16T05:46:53.196Z,16
2018-10-16T05:47:54.592Z,20
2018-10-16T05:48:55.987Z,24
2018-10-16T05:49:57.372Z,24
2018-10-16T05:50:58.756Z,24
2018-10-16T05:52:00.146Z,28
2018-10-16T05:53:01.537Z,32
2018-10-16T05:54:02.933Z,36
2018-10-16T05:55:04.324Z,40
2018-10-16T05:56:05.711Z,48
2018-10-16T05:57:07.100Z,56
2018-10-16T05:58:08.489Z,60
2018-10-16T05:59:09.881Z,68
2018-10-16T06:00:11.277Z,72
2018-10-16T06:01:12.665Z,80
2018-10-16T06:02:14.053Z,84
2018-10-16T06:03:15.444Z,92
2018-10-16T06:04:17.040Z,100
2018-10-16T06:05:18.479Z,112
2018-10-16T06:06:19.870Z,116
2018-10-16T06:07:21.263Z,124
2018-10-16T06:08:22.650Z,136
2018-10-16T06:09:24.044Z,140
2018-10-16T06:10:25.433Z,148
2018-10-16T06:11:26.820Z,156
2018-10-16T06:12:28.208Z,160
2018-10-16T06:13:29.600Z,164
2018-10-16T06:14:30.986Z,168
2018-10-16T06:15:32.378Z,180
2018-10-16T06:16:33.772Z,192
2018-10-16T06:17:35.165Z,204
2018-10-16T06:18:36.556Z,208
2018-10-16T06:19:37.937Z,212
2018-10-16T06:20:39.327Z,216
2018-10-16T06:21:40.716Z,232
2018-10-16T06:22:42.108Z,244
2018-10-16T06:23:43.497Z,256
2018-10-16T06:24:44.892Z,268
2018-10-16T06:25:46.282Z,268
2018-10-16T06:26:47.670Z,280
2018-10-16T06:27:49.067Z,292
2018-10-16T06:28:50.450Z,304
2018-10-16T06:29:51.842Z,308
2018-10-16T06:30:53.233Z,316
2018-10-16T06:31:54.628Z,324
2018-10-16T06:32:56.020Z,332
2018-10-16T06:33:57.410Z,344
2018-10-16T06:34:58.800Z,352
2018-10-16T06:36:00.193Z,356
2018-10-16T06:37:01.584Z,368
2018-10-16T06:38:02.976Z,376
2018-10-16T06:39:04.372Z,392
2018-10-16T06:40:05.758Z,408
2018-10-16T06:41:07.190Z,428
2018-10-16T06:42:08.542Z,448
2018-10-16T06:43:09.932Z,464
2018-10-16T06:44:11.325Z,476
2018-10-16T06:45:12.723Z,492
2018-10-16T06:46:14.116Z,504
2018-10-16T06:47:15.522Z,516
2018-10-16T06:48:17.011Z,528
2018-10-16T06:49:18.289Z,548
2018-10-16T06:50:19.726Z,576
2018-10-16T06:51:21.159Z,600
2018-10-16T06:52:22.554Z,636
2018-10-16T06:53:23.964Z,688
2018-10-16T06:54:25.336Z,724
2018-10-16T06:55:26.727Z,760
2018-10-16T06:56:28.115Z,796
2018-10-16T06:57:29.507Z,828
2018-10-16T06:58:30.899Z,856
2018-10-16T06:59:32.292Z,888
2018-10-16T07:00:33.684Z,912
2018-10-16T07:01:35.074Z,940
2018-10-16T07:02:36.505Z,964
2018-10-16T07:03:37.897Z,992
2018-10-16T07:04:39.290Z,1016
2018-10-16T07:05:40.684Z,1044
2018-10-16T07:06:42.091Z,1080
2018-10-16T07:07:43.473Z,1112
2018-10-16T07:08:44.929Z,1136
2018-10-16T07:09:46.329Z,1164
2018-10-16T07:10:47.708Z,1188
2018-10-16T07:11:49.100Z,1216
2018-10-16T07:12:50.492Z,1236
2018-10-16T07:13:51.888Z,1252
2018-10-16T07:14:53.319Z,1260
2018-10-16T07:15:54.675Z,1260
2018-10-16T07:16:56.068Z,1256
2018-10-16T07:17:57.461Z,1248
2018-10-16T07:18:58.856Z,1232
2018-10-16T07:20:00.247Z,1228
2018-10-16T07:21:01.654Z,1224
2018-10-16T07:22:03.038Z,1200
2018-10-16T07:23:04.429Z,1144
2018-10-16T07:24:05.923Z,1088
2018-10-16T07:25:07.210Z,1008
2018-10-16T07:26:08.603Z,972
2018-10-16T07:27:09.993Z,956
2018-10-16T07:28:11.389Z,968
2018-10-16T07:29:12.781Z,968
2018-10-16T07:30:14.260Z,972
2018-10-16T07:31:15.559Z,984
2018-10-16T07:32:16.954Z,992
2018-10-16T07:33:18.348Z,1008
2018-10-16T07:34:19.741Z,1020
2018-10-16T07:35:21.133Z,1008
2018-10-16T07:36:22.609Z,1012
2018-10-16T07:37:24.102Z,1008
2018-10-16T07:38:25.554Z,1008
2018-10-16T07:39:26.884Z,1004
2018-10-16T07:40:28.273Z,1000
2018-10-16T07:41:29.672Z,1004
2018-10-16T07:42:31.062Z,1012
2018-10-16T07:43:32.457Z,1024
2018-10-16T07:44:33.853Z,1032
2018-10-16T07:45:35.246Z,1052
2018-10-16T07:46:36.635Z,1068
2018-10-16T07:47:38.030Z,1080
2018-10-16T07:48:39.541Z,1092
2018-10-16T07:49:40.789Z,1100
2018-10-16T07:50:42.184Z,1112
2018-10-16T07:51:43.576Z,1120
2018-10-16T07:52:44.967Z,1128
2018-10-16T07:53:46.362Z,1140
2018-10-16T07:54:47.755Z,1144
2018-10-16T07:55:49.147Z,1156
2018-10-16T07:56:50.545Z,1164
2018-10-16T07:57:51.936Z,1168
2018-10-16T07:58:53.329Z,1180
2018-10-16T07:59:54.721Z,1184
2018-10-16T08:00:56.114Z,1188
2018-10-16T08:01:57.508Z,1196
2018-10-16T08:02:58.901Z,1200
2018-10-16T08:04:00.298Z,1188
2018-10-16T08:05:01.692Z,1172
2018-10-16T08:06:03.085Z,1172
2018-10-16T08:07:04.476Z,1200
2018-10-16T08:08:05.870Z,1264
2018-10-16T08:09:07.264Z,1284
2018-10-16T08:10:08.665Z,1276
2018-10-16T08:11:10.068Z,1232
2018-10-16T08:12:11.458Z,1240
2018-10-16T08:13:12.849Z,1304
2018-10-16T08:14:14.254Z,1364
2018-10-16T08:15:15.643Z,1392
2018-10-16T08:16:17.037Z,1408
2018-10-16T08:17:18.483Z,1428
2018-10-16T08:18:19.834Z,1448
2018-10-16T08:19:21.225Z,1468
2018-10-16T08:20:22.617Z,1488
2018-10-16T08:21:24.022Z,1508
2018-10-16T08:22:25.477Z,1536
2018-10-16T08:23:26.869Z,1560
2018-10-16T08:24:28.264Z,1592
2018-10-16T08:25:29.664Z,1616
2018-10-16T08:26:31.069Z,1652
2018-10-16T08:27:32.465Z,1684
2018-10-16T08:28:33.864Z,1716
2018-10-16T08:29:35.258Z,1756
2018-10-16T08:30:36.719Z,1800
2018-10-16T08:31:38.051Z,1852
2018-10-16T08:32:39.448Z,1908
2018-10-16T08:33:40.847Z,1968
2018-10-16T08:34:42.240Z,2028
2018-10-16T08:35:43.653Z,2092
2018-10-16T08:36:45.075Z,2160
2018-10-16T08:37:46.453Z,2224
2018-10-16T08:38:47.829Z,2292
2018-10-16T08:39:49.228Z,2372
2018-10-16T08:40:50.625Z,2448
2018-10-16T08:41:52.085Z,2532
2018-10-16T08:42:53.417Z,2632
2018-10-16T08:43:54.813Z,2744
2018-10-16T08:44:56.225Z,2844
2018-10-16T08:45:57.614Z,2944
2018-10-16T08:46:59.011Z,3044
2018-10-16T08:48:00.408Z,3152
2018-10-16T08:49:01.807Z,3264
2018-10-16T08:50:03.203Z,3380
2018-10-16T08:51:04.597Z,3492
2018-10-16T08:52:05.994Z,3608
2018-10-16T08:53:07.391Z,3716
2018-10-16T08:54:08.791Z,3824
2018-10-16T08:55:10.296Z,3916
2018-10-16T08:56:11.578Z,3984
2018-10-16T08:57:12.974Z,4048
2018-10-16T08:58:14.373Z,4112
2018-10-16T08:59:15.772Z,4168
2018-10-16T09:00:17.171Z,4220
2018-10-16T09:01:18.587Z,4284
2018-10-16T09:02:19.987Z,4352
2018-10-16T09:03:21.384Z,4416
2018-10-16T09:04:22.777Z,4492
2018-10-16T09:05:24.175Z,4572
2018-10-16T09:06:25.779Z,4656
2018-10-16T09:07:27.214Z,4744
2018-10-16T09:08:28.609Z,4828
2018-10-16T09:09:30.021Z,4880
2018-10-16T09:10:31.417Z,4956
2018-10-16T09:11:32.819Z,5056
2018-10-16T09:12:34.218Z,5132
2018-10-16T09:13:35.616Z,5216
2018-10-16T09:14:37.053Z,5304
2018-10-16T09:15:38.410Z,5424
2018-10-16T09:16:39.806Z,5560
2018-10-16T09:17:41.202Z,5700
2018-10-16T09:18:42.600Z,7388
2018-10-16T09:19:43.998Z,20064
2018-10-16T09:20:45.402Z,32096
2018-10-16T09:21:46.801Z,32032
2018-10-16T09:22:48.202Z,25440
2018-10-16T09:23:49.603Z,18880
2018-10-16T09:24:51.005Z,16288
2018-10-16T09:25:52.403Z,15248
2018-10-16T09:26:53.811Z,17280
2018-10-16T09:27:55.204Z,22016
2018-10-16T09:28:56.608Z,25376
2018-10-16T09:29:58.010Z,27104
2018-10-16T09:30:59.450Z,27744
2018-10-16T09:32:00.817Z,27552
2018-10-16T09:33:02.212Z,27232
2018-10-16T09:34:03.617Z,26368
2018-10-16T09:35:05.016Z,26656
2018-10-16T09:36:06.423Z,28800
2018-10-16T09:37:07.824Z,29952
2018-10-16T09:38:09.283Z,31680
2018-10-16T09:39:10.635Z,31808
2018-10-16T09:40:12.029Z,32896
2018-10-16T09:41:13.432Z,34432
2018-10-16T09:42:14.833Z,34688
2018-10-16T09:43:16.241Z,38592
2018-10-16T09:44:17.643Z,43136
2018-10-16T09:45:19.076Z,49760
2018-10-16T09:46:20.474Z,52736
2018-10-16T09:47:21.885Z,51200
2018-10-16T09:48:23.289Z,53888
2018-10-16T09:49:24.694Z,53312
2018-10-16T09:50:26.190Z,51456
2018-10-16T09:51:27.595Z,53984
2018-10-16T09:52:29.003Z,55360
2018-10-16T09:53:30.405Z,53440
2018-10-16T09:54:31.808Z,56928
2018-10-16T09:55:33.224Z,55264
2018-10-16T09:56:34.622Z,53024
2018-10-16T09:57:36.027Z,56192
2018-10-16T09:58:37.432Z,52320
2018-10-16T09:59:38.837Z,52032
2018-10-16T10:00:40.293Z,52992
2018-10-16T10:01:41.655Z,49888
2018-10-16T10:02:43.056Z,50720
2018-10-16T10:03:44.461Z,52800
2018-10-16T10:04:45.876Z,53472
2018-10-16T10:05:47.292Z,55456
2018-10-16T10:06:48.705Z,54432
2018-10-16T10:07:50.115Z,56160
2018-10-16T10:08:51.522Z,55808
2018-10-16T10:09:52.936Z,54496
2018-10-16T10:10:54.351Z,56640
2018-10-16T10:11:55.756Z,56512
2018-10-16T10:12:57.167Z,55520
2018-10-16T10:13:58.577Z,54112
2018-10-16T10:14:59.983Z,55488
2018-10-16T10:16:01.394Z,58976
2018-10-16T10:17:02.799Z,58816
2018-10-16T10:18:04.211Z,59136
2018-10-16T10:19:05.621Z,58336
2018-10-16T10:20:07.031Z,56256
2018-10-16T10:21:08.442Z,53632
2018-10-16T10:22:09.852Z,58144
2018-10-16T10:23:11.317Z,64544
2018-10-16T10:24:12.671Z,63936
2018-10-16T10:25:14.104Z,62304
2018-10-16T10:26:15.500Z,61248
2018-10-16T10:27:16.912Z,60416
2018-10-16T10:28:18.323Z,63808
2018-10-16T10:29:19.738Z,65248
2018-10-16T10:30:21.152Z,65568
2018-10-16T10:31:22.563Z,63616
2018-10-16T10:32:24.044Z,55808
2018-10-16T10:33:25.470Z,56768
2018-10-16T10:34:26.885Z,56224
2018-10-16T10:35:28.349Z,62944
2018-10-16T10:36:29.702Z,63296
2018-10-16T10:37:31.117Z,60704
2018-10-16T10:38:32.527Z,58016
2018-10-16T10:39:33.939Z,54624
2018-10-16T10:40:35.350Z,54816
2018-10-16T10:41:36.766Z,58592
2018-10-16T10:42:38.179Z,60320
2018-10-16T10:43:39.590Z,53344
2018-10-16T10:44:41.001Z,27584
2018-10-16T10:45:42.409Z,11844
2018-10-16T10:46:43.822Z,11348
2018-10-16T10:47:45.239Z,11104
2018-10-16T10:48:46.653Z,10916
2018-10-16T10:49:48.122Z,10812
2018-10-16T10:50:49.694Z,10776
2018-10-16T10:51:50.901Z,10804
2018-10-16T10:52:52.315Z,10832
2018-10-16T10:53:53.724Z,11296
2018-10-16T10:54:55.142Z,12244
2018-10-16T10:55:56.545Z,13136
2018-10-16T10:56:58.031Z,15744
2018-10-16T10:57:59.362Z,38304
2018-10-16T10:59:00.765Z,59520
2018-10-16T11:00:02.179Z,61408
2018-10-16T11:01:03.622Z,57248
2018-10-16T11:02:05.030Z,43136
2018-10-16T11:03:06.455Z,25728
2018-10-16T11:04:07.845Z,12700
2018-10-16T11:05:09.247Z,10736
2018-10-16T11:06:10.658Z,10640
2018-10-16T11:07:12.067Z,10584
2018-10-16T11:08:13.477Z,10556
2018-10-16T11:09:14.918Z,10504
2018-10-16T11:10:16.297Z,10472
2018-10-16T11:11:17.706Z,10464
2018-10-16T11:12:19.111Z,10464
2018-10-16T11:13:20.520Z,10480
2018-10-16T11:14:21.946Z,10456
2018-10-16T11:15:23.479Z,10448
2018-10-16T11:16:24.881Z,10404
2018-10-16T11:17:26.300Z,10428
2018-10-16T11:18:27.709Z,10360
2018-10-16T11:19:29.237Z,10384
2018-10-16T11:20:30.522Z,10360
2018-10-16T11:21:31.926Z,9836
2018-10-16T11:22:33.340Z,10364
2018-10-16T11:23:34.767Z,10348
2018-10-16T11:24:36.180Z,10364
2018-10-16T11:25:37.594Z,10428
2018-10-16T11:26:38.990Z,10484
2018-10-16T11:27:40.401Z,10528
2018-10-16T11:28:41.809Z,10548
2018-10-16T11:29:43.240Z,10580
2018-10-16T11:30:44.645Z,10564
2018-10-16T11:31:46.052Z,10572
2018-10-16T11:32:47.465Z,10536
2018-10-16T11:33:48.874Z,10516
2018-10-16T11:34:50.277Z,10492
2018-10-16T11:35:51.694Z,10420
2018-10-16T11:36:53.109Z,10524
2018-10-16T11:37:54.507Z,10540
2018-10-16T11:38:55.922Z,10444
2018-10-16T11:39:57.328Z,10232
2018-10-16T11:40:58.724Z,9972
2018-10-16T11:42:00.135Z,9448
2018-10-16T11:43:01.541Z,9100
2018-10-16T11:44:02.953Z,9216
2018-10-16T11:45:04.417Z,9084
2018-10-16T11:46:05.747Z,8720
2018-10-16T11:47:07.165Z,8572
2018-10-16T11:48:08.567Z,6756
2018-10-16T11:49:09.965Z,8232
2018-10-16T11:50:11.395Z,4572
2018-10-16T11:51:12.777Z,6384
2018-10-16T11:52:14.204Z,7252
2018-10-16T11:53:15.596Z,6212
2018-10-16T11:54:17.008Z,8688
2018-10-16T11:55:18.411Z,9548
2018-10-16T11:56:19.818Z,10636
2018-10-16T11:57:21.301Z,8988
2018-10-16T11:58:22.711Z,7180
2018-10-16T11:59:24.199Z,7928
2018-10-16T12:00:25.520Z,7220
2018-10-16T12:01:26.922Z,7608
2018-10-16T12:02:28.341Z,6912
2018-10-16T12:03:29.743Z,7692
2018-10-16T12:04:31.144Z,7696
2018-10-16T12:05:32.547Z,5680
2018-10-16T12:06:33.954Z,8272
2018-10-16T12:07:35.359Z,7908
2018-10-16T12:08:36.767Z,6228
2018-10-16T12:09:38.166Z,8480
2018-10-16T12:10:39.628Z,5236
2018-10-16T12:11:40.972Z,7016
2018-10-16T12:12:42.377Z,8944
2018-10-16T12:13:43.785Z,8980
2018-10-16T12:14:45.192Z,7060
2018-10-16T12:15:46.598Z,4696
2018-10-16T12:16:48.018Z,4488
2018-10-16T12:17:49.413Z,4748
2018-10-16T12:18:50.865Z,5180
2018-10-16T12:19:52.244Z,5160
2018-10-16T12:20:53.653Z,6804
2018-10-16T12:21:55.270Z,8644
2018-10-16T12:22:56.880Z,8568
2018-10-16T12:23:58.317Z,8332
2018-10-16T12:24:59.728Z,9424
2018-10-16T12:26:01.099Z,9700
2018-10-16T12:27:02.547Z,9416
2018-10-16T12:28:06.681Z,8224
2018-10-16T12:29:08.173Z,9908
2018-10-16T12:30:09.489Z,9880
2018-10-16T12:31:10.990Z,9884
2018-10-16T12:32:12.332Z,9868
2018-10-16T12:33:16.439Z,9456
2018-10-16T12:34:17.848Z,9052
2018-10-16T12:35:19.256Z,7520
2018-10-16T12:36:20.661Z,6992
2018-10-16T12:37:22.064Z,5936
2018-10-16T12:38:26.248Z,6732
2018-10-16T12:39:26.661Z,5620
2018-10-16T12:40:28.061Z,5404
2018-10-16T12:41:29.462Z,6144
2018-10-16T12:42:30.868Z,6420
2018-10-16T12:43:32.377Z,5556
2018-10-16T12:44:33.682Z,4712
2018-10-16T12:45:36.753Z,5204
2018-10-16T12:46:38.155Z,6836
2018-10-16T12:47:39.563Z,5748
2018-10-16T12:48:40.963Z,5620
2018-10-16T12:49:42.367Z,6512
2018-10-16T12:50:43.768Z,5416
2018-10-16T12:51:45.174Z,4576
2018-10-16T12:52:46.575Z,4660
2018-10-16T12:53:47.983Z,5880
2018-10-16T12:54:49.379Z,5900
2018-10-16T12:55:50.817Z,7072
2018-10-16T12:56:52.242Z,7576
2018-10-16T12:57:56.355Z,6932
2018-10-16T12:58:57.766Z,4160
2018-10-16T12:59:59.186Z,6052
2018-10-16T13:01:00.567Z,6604
2018-10-16T13:02:02.072Z,5084
2018-10-16T13:03:03.441Z,4380
2018-10-16T13:04:04.786Z,3732
2018-10-16T13:05:06.250Z,3656
2018-10-16T13:06:07.589Z,3544
2018-10-16T13:07:09.138Z,3552
2018-10-16T13:08:10.669Z,3660
2018-10-16T13:09:12.061Z,4100
2018-10-16T13:10:13.348Z,3912
2018-10-16T13:11:14.783Z,5288
2018-10-16T13:12:16.152Z,4080
2018-10-16T13:13:17.561Z,3624
2018-10-16T13:14:18.968Z,3600
2018-10-16T13:15:20.375Z,3620
2018-10-16T13:16:21.777Z,3652
2018-10-16T13:17:23.258Z,3736
2018-10-16T13:18:24.596Z,3868
2018-10-16T13:19:25.993Z,3912
2018-10-16T13:20:27.396Z,3896
2018-10-16T13:21:28.797Z,3824
2018-10-16T13:22:30.199Z,3820
2018-10-16T13:23:31.651Z,3796
2018-10-16T13:24:33.006Z,3832
2018-10-16T13:25:34.410Z,3900
2018-10-16T13:26:35.811Z,3956
2018-10-16T13:27:37.215Z,4276
2018-10-16T13:28:38.613Z,4452
2018-10-16T13:29:40.171Z,4372
2018-10-16T13:30:41.437Z,4688
2018-10-16T13:31:42.828Z,3752
2018-10-16T13:32:46.791Z,3604
2018-10-16T13:33:48.191Z,3432
2018-10-16T13:34:49.594Z,3380
2018-10-16T13:35:50.994Z,3332
2018-10-16T13:36:52.469Z,3276
2018-10-16T13:37:53.798Z,3200
2018-10-16T13:38:55.189Z,3132
2018-10-16T13:39:56.650Z,3080
2018-10-16T13:40:58.002Z,3036
2018-10-16T13:41:59.409Z,2988
2018-10-16T13:43:00.866Z,2956
2018-10-16T13:44:02.240Z,2932
2018-10-16T13:45:03.576Z,2880
2018-10-16T13:46:05.018Z,2852
2018-10-16T13:47:06.467Z,2836
2018-10-16T13:48:07.897Z,2828
2018-10-16T13:49:09.301Z,2824
2018-10-16T13:50:10.815Z,2816
2018-10-16T13:51:12.116Z,2816
2018-10-16T13:52:13.598Z,2824
2018-10-16T13:53:14.930Z,2848
2018-10-16T13:54:16.333Z,2896
2018-10-16T13:55:17.731Z,2964
2018-10-16T13:56:19.134Z,3008
2018-10-16T13:57:20.534Z,3052
2018-10-16T13:58:21.931Z,3548
2018-10-16T13:59:23.329Z,3044
2018-10-16T14:00:24.736Z,3036
2018-10-16T14:01:26.128Z,2988
2018-10-16T14:02:27.532Z,2900
2018-10-16T14:03:28.931Z,2760
2018-10-16T14:04:30.336Z,2656
2018-10-16T14:05:31.739Z,2584
2018-10-16T14:06:33.139Z,2508
2018-10-16T14:07:34.541Z,2420
2018-10-16T14:08:35.942Z,2324
2018-10-16T14:09:37.343Z,2236
2018-10-16T14:10:38.743Z,2156
2018-10-16T14:11:40.143Z,2096